Seaway II — ZMR3466 — position and weather

sailwx.info

Track history (hours):
 
Tides and Currents Weather Stations Pressure Air Temp Water Temp Dewpoint Dewpoint Depression Visibility Wind Speed Wind Dir Waves Ship Positions

Seaway II

Last reported at 2017-Sep-16 00:41 UTC. Time now 2017-Dec-12 16:05 UTC.
Position S 36°50' E 174°48'.
Warning: this ship's position is months out of date.

Length 37 m.

Type: Passenger vessel. MMSI: 512001026.

Date/timePositionNaut miles runAvg speedWind from/ knotsBaromVisibWave heightAir tempDewpointWater temp
2017-Sep-16 00:41S 36°50' E 174°48'5 2.9
2017-Sep-15 22:51S 36°49' E 174°54'512.9
2017-Sep-15 22:30S 36°50' E 174°49'1 0.1
2017-Sep-15 09:26S 36°50' E 174°47'6 4.2
2017-Sep-15 08:05S 36°49' E 174°54'413.5
2017-Sep-15 07:48S 36°50' E 174°50'2 2.0
2017-Sep-15 06:49S 36°50' E 174°47'  
2017-Sep-10 07:21S 36°50' E 174°49'1 2.4
2017-Sep-10 06:48S 36°50' E 174°48'5 3.0
2017-Sep-10 05:03S 36°49' E 174°54'414.4
2017-Sep-10 04:48S 36°50' E 174°50'2 0.4
2017-Sep-10 00:38S 36°50' E 174°48'5 2.8
2017-Sep-09 22:47S 36°49' E 174°54'415.4
2017-Sep-09 22:30S 36°50' E 174°49'1 0.1
2017-Sep-09 06:44S 36°50' E 174°48'5 3.0
2017-Sep-09 05:01S 36°49' E 174°54'014.9
2017-Sep-09 05:00S 36°49' E 174°54'5 1.2
2017-Sep-09 00:37S 36°50' E 174°48'6 3.1
2017-Sep-08 22:49S 36°49' E 174°54'6 0.4
2017-Sep-08 09:21S 36°50' E 174°47'2 1.2
2017-Sep-08 07:49S 36°50' E 174°50'1 1.3
2017-Sep-08 06:49S 36°50' E 174°48'  
Track history (hours):
 
Tides and Currents Weather Stations Pressure Air Temp Water Temp Dewpoint Dewpoint Depression Visibility Wind Speed Wind Dir Waves Ship Positions

Seaway II

Last reported at 2017-Sep-16 00:41 UTC. Time now 2017-Dec-12 16:05 UTC.
Position S 36°50' E 174°48'.
Warning: this ship's position is months out of date.

Length 37 m.

Type: Passenger vessel. MMSI: 512001026.

Date/timePositionNaut miles runAvg speedWind from/ knotsBaromVisibWave heightAir tempDewpointWater temp
2017-Sep-16 00:41S 36°50' E 174°48'5 2.9
2017-Sep-15 22:51S 36°49' E 174°54'512.9
2017-Sep-15 22:30S 36°50' E 174°49'1 0.1
2017-Sep-15 09:26S 36°50' E 174°47'6 4.2
2017-Sep-15 08:05S 36°49' E 174°54'413.5
2017-Sep-15 07:48S 36°50' E 174°50'2 2.0
2017-Sep-15 06:49S 36°50' E 174°47'  
2017-Sep-10 07:21S 36°50' E 174°49'1 2.4
2017-Sep-10 06:48S 36°50' E 174°48'5 3.0
2017-Sep-10 05:03S 36°49' E 174°54'414.4
2017-Sep-10 04:48S 36°50' E 174°50'2 0.4
2017-Sep-10 00:38S 36°50' E 174°48'5 2.8
2017-Sep-09 22:47S 36°49' E 174°54'415.4
2017-Sep-09 22:30S 36°50' E 174°49'1 0.1
2017-Sep-09 06:44S 36°50' E 174°48'5 3.0
2017-Sep-09 05:01S 36°49' E 174°54'014.9
2017-Sep-09 05:00S 36°49' E 174°54'5 1.2
2017-Sep-09 00:37S 36°50' E 174°48'6 3.1
2017-Sep-08 22:49S 36°49' E 174°54'6 0.4
2017-Sep-08 09:21S 36°50' E 174°47'2 1.2
2017-Sep-08 07:49S 36°50' E 174°50'1 1.3
2017-Sep-08 06:49S 36°50' E 174°48'  

Dump ship's entire track history